FAD121 OEMA-OEJN
Flight info
| Callsign | FAD121 |
|---|---|
| Flight time | N/A |
| Altitude | 24000 |
| Route | SISUD B544 NOMDA |
| Aircraft | A320/M-SDE3FGHIRWY/LB1 |
Departure
| Time | 2026-04-29 09:32 |
|---|---|
| Airport | Prince Mohammad Bin Abdulaziz Airport (OEMA) |
Arrival
| Time | N/A |
|---|---|
| Airport | King Abdulaziz International Airport (OEJN) |
| Time | Latitude | Longitude | Altitude | Speed | Heading |
|---|---|---|---|---|---|
| 2026-04-29 08:51 | 24.56390 | 39.71112 | 2118 ft | 0 kts | 78° |
| 2026-04-29 09:17 | 24.56390 | 39.71110 | 2118 ft | 1 kts | 78° |
| 2026-04-29 09:17 | 24.56387 | 39.71092 | 2118 ft | 3 kts | 78° |
| 2026-04-29 09:17 | 24.56383 | 39.71071 | 2118 ft | 3 kts | 78° |
| 2026-04-29 09:17 | 24.56379 | 39.71049 | 2117 ft | 3 kts | 78° |
| 2026-04-29 09:18 | 24.56375 | 39.71030 | 2117 ft | 3 kts | 75° |
| 2026-04-29 09:18 | 24.56368 | 39.71011 | 2117 ft | 3 kts | 44° |
| 2026-04-29 09:18 | 24.56367 | 39.71009 | 2117 ft | 0 kts | 39° |
| 2026-04-29 09:23 | 24.56368 | 39.71010 | 2117 ft | 0 kts | 39° |
| 2026-04-29 09:23 | 24.56369 | 39.71011 | 2117 ft | 1 kts | 32° |
| 2026-04-29 09:24 | 24.56370 | 39.71011 | 2117 ft | 0 kts | 31° |
| 2026-04-29 09:24 | 24.56375 | 39.71013 | 2117 ft | 0 kts | 24° |
| 2026-04-29 09:25 | 24.56383 | 39.71016 | 2117 ft | 0 kts | 14° |
| 2026-04-29 09:25 | 24.56407 | 39.70997 | 2118 ft | 7 kts | 320° |
| 2026-04-29 09:26 | 24.56425 | 39.70986 | 2120 ft | 6 kts | 345° |
| 2026-04-29 09:26 | 24.56449 | 39.70930 | 2120 ft | 12 kts | 264° |
| 2026-04-29 09:26 | 24.56433 | 39.70840 | 2119 ft | 12 kts | 255° |
| 2026-04-29 09:26 | 24.56466 | 39.70776 | 2119 ft | 10 kts | 347° |
| 2026-04-29 09:27 | 24.56526 | 39.70761 | 2117 ft | 8 kts | 349° |
| 2026-04-29 09:27 | 24.56588 | 39.70749 | 2118 ft | 11 kts | 349° |
| 2026-04-29 09:27 | 24.56646 | 39.70737 | 2119 ft | 14 kts | 350° |
| 2026-04-29 09:27 | 24.56742 | 39.70719 | 2119 ft | 13 kts | 351° |
| 2026-04-29 09:28 | 24.56821 | 39.70700 | 2121 ft | 10 kts | 346° |
| 2026-04-29 09:28 | 24.56900 | 39.70682 | 2120 ft | 16 kts | 350° |
| 2026-04-29 09:28 | 24.57043 | 39.70652 | 2122 ft | 26 kts | 349° |
| 2026-04-29 09:28 | 24.57240 | 39.70612 | 2128 ft | 30 kts | 349° |
| 2026-04-29 09:29 | 24.57442 | 39.70570 | 2130 ft | 29 kts | 349° |
| 2026-04-29 09:29 | 24.57653 | 39.70476 | 2133 ft | 0 kts | 269° |
| 2026-04-29 09:31 | 24.57653 | 39.70475 | 2133 ft | 1 kts | 268° |
| 2026-04-29 09:31 | 24.57643 | 39.70409 | 2133 ft | 19 kts | 259° |
| 2026-04-29 09:31 | 24.57567 | 39.70351 | 2132 ft | 9 kts | 178° |
| 2026-04-29 09:31 | 24.57548 | 39.70354 | 2131 ft | 0 kts | 170° |
| 2026-04-29 09:32 | 24.57300 | 39.70405 | 2127 ft | 74 kts | 168° |
| 2026-04-29 09:32 | 24.56585 | 39.70557 | 2118 ft | 133 kts | 169° |
| 2026-04-29 09:32 | 24.55509 | 39.70786 | 2112 ft | 178 kts | 169° |
| 2026-04-29 09:32 | 24.54320 | 39.71053 | 2822 ft | 173 kts | 169° |
| 2026-04-29 09:33 | 24.53138 | 39.71304 | 3576 ft | 173 kts | 170° |
| 2026-04-29 09:33 | 24.51965 | 39.71548 | 4096 ft | 178 kts | 170° |
| 2026-04-29 09:33 | 24.50670 | 39.71815 | 4350 ft | 201 kts | 170° |
| 2026-04-29 09:33 | 24.49216 | 39.72115 | 4625 ft | 225 kts | 169° |
| 2026-04-29 09:34 | 24.47594 | 39.72452 | 5015 ft | 249 kts | 170° |
| 2026-04-29 09:34 | 24.45809 | 39.72826 | 5397 ft | 269 kts | 170° |
| 2026-04-29 09:34 | 24.43953 | 39.73217 | 5767 ft | 273 kts | 170° |
| 2026-04-29 09:34 | 24.42078 | 39.73615 | 6162 ft | 275 kts | 171° |
| 2026-04-29 09:35 | 24.40193 | 39.74016 | 6312 ft | 276 kts | 171° |
| 2026-04-29 09:35 | 24.38295 | 39.74417 | 6719 ft | 279 kts | 171° |
| 2026-04-29 09:35 | 24.36384 | 39.74818 | 7614 ft | 281 kts | 172° |
| 2026-04-29 09:35 | 24.34430 | 39.74939 | 8411 ft | 282 kts | 186° |
| 2026-04-29 09:36 | 24.32503 | 39.74524 | 9158 ft | 284 kts | 200° |
| 2026-04-29 09:36 | 24.30697 | 39.73620 | 9899 ft | 286 kts | 208° |
| 2026-04-29 09:36 | 24.28904 | 39.72604 | 10428 ft | 299 kts | 208° |
| 2026-04-29 09:36 | 24.26984 | 39.71524 | 10620 ft | 322 kts | 208° |
| 2026-04-29 09:37 | 24.24920 | 39.70369 | 10832 ft | 342 kts | 208° |
| 2026-04-29 09:37 | 24.22769 | 39.69172 | 11389 ft | 349 kts | 208° |
| 2026-04-29 09:37 | 24.20595 | 39.67962 | 12087 ft | 352 kts | 208° |
| 2026-04-29 09:37 | 24.18410 | 39.66746 | 12820 ft | 353 kts | 208° |
| 2026-04-29 09:38 | 24.16210 | 39.65521 | 13525 ft | 356 kts | 209° |
| 2026-04-29 09:38 | 24.13997 | 39.64287 | 14231 ft | 358 kts | 209° |
| 2026-04-29 09:38 | 24.11805 | 39.63066 | 14885 ft | 360 kts | 209° |
| 2026-04-29 09:38 | 24.09565 | 39.61822 | 15523 ft | 362 kts | 209° |
| 2026-04-29 09:39 | 24.07307 | 39.60570 | 16152 ft | 364 kts | 210° |
| 2026-04-29 09:39 | 24.05038 | 39.59311 | 16769 ft | 367 kts | 210° |
| 2026-04-29 09:39 | 24.02755 | 39.58042 | 17371 ft | 369 kts | 210° |
| 2026-04-29 09:39 | 24.00459 | 39.56768 | 17966 ft | 371 kts | 210° |
| 2026-04-29 09:40 | 23.98146 | 39.55484 | 18532 ft | 374 kts | 210° |
| 2026-04-29 09:40 | 23.95825 | 39.54193 | 19062 ft | 376 kts | 210° |
| 2026-04-29 09:40 | 23.93484 | 39.52891 | 19597 ft | 378 kts | 210° |
| 2026-04-29 09:40 | 23.91133 | 39.51583 | 20111 ft | 380 kts | 210° |
| 2026-04-29 09:41 | 23.88766 | 39.50270 | 20601 ft | 383 kts | 210° |
| 2026-04-29 09:41 | 23.86383 | 39.48951 | 21063 ft | 385 kts | 211° |
| 2026-04-29 09:41 | 23.83989 | 39.47625 | 21538 ft | 387 kts | 211° |
| 2026-04-29 09:41 | 23.81611 | 39.46306 | 21983 ft | 390 kts | 211° |
| 2026-04-29 09:42 | 23.79184 | 39.44960 | 22384 ft | 392 kts | 211° |
| 2026-04-29 09:42 | 23.76741 | 39.43607 | 22798 ft | 395 kts | 211° |
| 2026-04-29 09:42 | 23.74202 | 39.42394 | 23186 ft | 401 kts | 204° |
| 2026-04-29 09:42 | 23.71537 | 39.41466 | 23559 ft | 403 kts | 202° |
| 2026-04-29 09:43 | 23.68852 | 39.40544 | 23884 ft | 406 kts | 202° |
| 2026-04-29 09:43 | 23.66144 | 39.39614 | 23953 ft | 412 kts | 202° |
| 2026-04-29 09:43 | 23.63389 | 39.38663 | 23993 ft | 419 kts | 202° |
| 2026-04-29 09:43 | 23.60599 | 39.37700 | 23981 ft | 421 kts | 202° |
| 2026-04-29 09:44 | 23.57796 | 39.36731 | 23968 ft | 422 kts | 202° |
| 2026-04-29 09:44 | 23.54993 | 39.35759 | 23969 ft | 423 kts | 202° |
| 2026-04-29 09:44 | 23.52188 | 39.34786 | 23970 ft | 423 kts | 202° |
| 2026-04-29 09:44 | 23.49382 | 39.33815 | 23971 ft | 424 kts | 202° |